sensor_id;sensor_type;location;lat;lon;timestamp;P1;durP1;ratioP1;P2;durP2;ratioP2
56517;SDS011;42419;48.760;2.322;2023-02-21T00:02:10;7.30;;;6.20;;
56517;SDS011;42419;48.760;2.322;2023-02-21T00:04:54;6.40;;;5.47;;
56517;SDS011;42419;48.760;2.322;2023-02-21T00:07:38;7.10;;;5.70;;
56517;SDS011;42419;48.760;2.322;2023-02-21T00:10:22;6.33;;;5.73;;
56517;SDS011;42419;48.760;2.322;2023-02-21T00:13:07;6.93;;;5.90;;
56517;SDS011;42419;48.760;2.322;2023-02-21T00:15:52;6.67;;;5.90;;
56517;SDS011;42419;48.760;2.322;2023-02-21T00:18:36;7.07;;;6.37;;
56517;SDS011;42419;48.760;2.322;2023-02-21T00:21:20;6.70;;;5.67;;
56517;SDS011;42419;48.760;2.322;2023-02-21T00:24:04;6.50;;;5.90;;
56517;SDS011;42419;48.760;2.322;2023-02-21T00:26:49;7.17;;;6.50;;
56517;SDS011;42419;48.760;2.322;2023-02-21T00:29:33;6.30;;;5.57;;
56517;SDS011;42419;48.760;2.322;2023-02-21T00:32:17;8.70;;;6.23;;
56517;SDS011;42419;48.760;2.322;2023-02-21T00:35:00;6.30;;;5.67;;
56517;SDS011;42419;48.760;2.322;2023-02-21T00:37:48;6.13;;;5.53;;
56517;SDS011;42419;48.760;2.322;2023-02-21T00:40:33;8.33;;;6.17;;
56517;SDS011;42419;48.760;2.322;2023-02-21T00:43:17;6.60;;;6.00;;
56517;SDS011;42419;48.760;2.322;2023-02-21T00:46:01;5.83;;;5.33;;
56517;SDS011;42419;48.760;2.322;2023-02-21T00:48:45;7.10;;;6.40;;
56517;SDS011;42419;48.760;2.322;2023-02-21T00:51:29;7.90;;;6.00;;
56517;SDS011;42419;48.760;2.322;2023-02-21T00:54:13;5.87;;;5.27;;
56517;SDS011;42419;48.760;2.322;2023-02-21T00:56:57;6.00;;;5.00;;
56517;SDS011;42419;48.760;2.322;2023-02-21T00:59:41;6.90;;;6.00;;
56517;SDS011;42419;48.760;2.322;2023-02-21T01:02:25;5.87;;;5.30;;
56517;SDS011;42419;48.760;2.322;2023-02-21T01:05:09;6.07;;;5.47;;
56517;SDS011;42419;48.760;2.322;2023-02-21T01:07:53;6.33;;;5.70;;
56517;SDS011;42419;48.760;2.322;2023-02-21T01:10:37;5.50;;;5.00;;
56517;SDS011;42419;48.760;2.322;2023-02-21T01:13:21;5.93;;;5.43;;
56517;SDS011;42419;48.760;2.322;2023-02-21T01:16:05;6.83;;;6.03;;
56517;SDS011;42419;48.760;2.322;2023-02-21T01:18:50;7.70;;;6.20;;
56517;SDS011;42419;48.760;2.322;2023-02-21T01:21:35;6.97;;;5.33;;
56517;SDS011;42419;48.760;2.322;2023-02-21T01:24:18;6.70;;;6.03;;
56517;SDS011;42419;48.760;2.322;2023-02-21T01:27:02;6.90;;;5.50;;
56517;SDS011;42419;48.760;2.322;2023-02-21T01:29:47;5.93;;;5.40;;
56517;SDS011;42419;48.760;2.322;2023-02-21T01:32:30;5.67;;;5.17;;
56517;SDS011;42419;48.760;2.322;2023-02-21T01:35:15;6.00;;;5.40;;
56517;SDS011;42419;48.760;2.322;2023-02-21T01:37:59;6.10;;;5.50;;
56517;SDS011;42419;48.760;2.322;2023-02-21T01:40:43;5.37;;;4.87;;
56517;SDS011;42419;48.760;2.322;2023-02-21T01:43:27;6.20;;;5.63;;
56517;SDS011;42419;48.760;2.322;2023-02-21T01:46:16;5.30;;;4.80;;
56517;SDS011;42419;48.760;2.322;2023-02-21T01:49:08;5.93;;;5.17;;
56517;SDS011;42419;48.760;2.322;2023-02-21T01:51:59;5.33;;;4.83;;
56517;SDS011;42419;48.760;2.322;2023-02-21T01:54:46;6.13;;;5.40;;
56517;SDS011;42419;48.760;2.322;2023-02-21T01:57:34;5.53;;;5.03;;
56517;SDS011;42419;48.760;2.322;2023-02-21T02:00:18;5.90;;;5.30;;
56517;SDS011;42419;48.760;2.322;2023-02-21T02:03:04;5.10;;;4.63;;
56517;SDS011;42419;48.760;2.322;2023-02-21T02:05:57;5.07;;;4.63;;
56517;SDS011;42419;48.760;2.322;2023-02-21T02:08:44;5.90;;;5.30;;
56517;SDS011;42419;48.760;2.322;2023-02-21T02:20:35;6.00;;;5.47;;
56517;SDS011;42419;48.760;2.322;2023-02-21T02:23:09;5.63;;;5.07;;
56517;SDS011;42419;48.760;2.322;2023-02-21T02:28:43;5.47;;;4.93;;
56517;SDS011;42419;48.760;2.322;2023-02-21T02:36:58;5.13;;;4.67;;
56517;SDS011;42419;48.760;2.322;2023-02-21T02:48:05;4.73;;;4.27;;
56517;SDS011;42419;48.760;2.322;2023-02-21T02:50:44;5.27;;;4.83;;
56517;SDS011;42419;48.760;2.322;2023-02-21T02:53:11;6.23;;;5.63;;
56517;SDS011;42419;48.760;2.322;2023-02-21T02:55:50;5.30;;;4.80;;
56517;SDS011;42419;48.760;2.322;2023-02-21T02:58:20;5.73;;;5.13;;
56517;SDS011;42419;48.760;2.322;2023-02-21T03:00:56;5.33;;;4.83;;
56517;SDS011;42419;48.760;2.322;2023-02-21T03:06:30;4.53;;;4.13;;
56517;SDS011;42419;48.760;2.322;2023-02-21T03:09:12;5.20;;;4.80;;
56517;SDS011;42419;48.760;2.322;2023-02-21T03:17:32;4.97;;;4.50;;
56517;SDS011;42419;48.760;2.322;2023-02-21T03:20:04;6.10;;;4.57;;
56517;SDS011;42419;48.760;2.322;2023-02-21T03:22:33;3.83;;;3.53;;
56517;SDS011;42419;48.760;2.322;2023-02-21T03:24:59;4.73;;;4.30;;
56517;SDS011;42419;48.760;2.322;2023-02-21T03:27:27;5.50;;;5.00;;
56517;SDS011;42419;48.760;2.322;2023-02-21T03:29:55;5.53;;;5.07;;
56517;SDS011;42419;48.760;2.322;2023-02-21T03:32:26;4.70;;;4.30;;
56517;SDS011;42419;48.760;2.322;2023-02-21T03:34:56;5.07;;;4.20;;
56517;SDS011;42419;48.760;2.322;2023-02-21T03:37:32;4.97;;;4.23;;
56517;SDS011;42419;48.760;2.322;2023-02-21T03:40:00;4.90;;;4.40;;
56517;SDS011;42419;48.760;2.322;2023-02-21T03:42:27;4.63;;;4.23;;
56517;SDS011;42419;48.760;2.322;2023-02-21T03:44:53;4.40;;;4.10;;
56517;SDS011;42419;48.760;2.322;2023-02-21T03:47:18;4.40;;;4.00;;
56517;SDS011;42419;48.760;2.322;2023-02-21T03:49:43;4.83;;;4.43;;
56517;SDS011;42419;48.760;2.322;2023-02-21T03:52:09;4.60;;;4.20;;
56517;SDS011;42419;48.760;2.322;2023-02-21T03:54:36;4.90;;;3.90;;
56517;SDS011;42419;48.760;2.322;2023-02-21T03:57:02;4.83;;;4.43;;
56517;SDS011;42419;48.760;2.322;2023-02-21T03:59:28;4.50;;;4.10;;
56517;SDS011;42419;48.760;2.322;2023-02-21T04:01:53;5.47;;;4.97;;
56517;SDS011;42419;48.760;2.322;2023-02-21T04:04:19;4.63;;;4.23;;
56517;SDS011;42419;48.760;2.322;2023-02-21T04:06:44;5.90;;;4.60;;
56517;SDS011;42419;48.760;2.322;2023-02-21T04:09:09;4.60;;;4.20;;
56517;SDS011;42419;48.760;2.322;2023-02-21T04:11:35;4.50;;;4.10;;
56517;SDS011;42419;48.760;2.322;2023-02-21T04:14:00;5.30;;;4.60;;
56517;SDS011;42419;48.760;2.322;2023-02-21T04:16:25;4.17;;;3.87;;
56517;SDS011;42419;48.760;2.322;2023-02-21T04:18:54;5.07;;;4.57;;
56517;SDS011;42419;48.760;2.322;2023-02-21T04:21:19;4.97;;;4.50;;
56517;SDS011;42419;48.760;2.322;2023-02-21T04:23:45;5.13;;;4.57;;
56517;SDS011;42419;48.760;2.322;2023-02-21T04:26:10;4.63;;;4.23;;
56517;SDS011;42419;48.760;2.322;2023-02-21T04:28:35;4.10;;;3.70;;
56517;SDS011;42419;48.760;2.322;2023-02-21T04:31:01;4.40;;;4.00;;
56517;SDS011;42419;48.760;2.322;2023-02-21T04:33:26;4.57;;;4.17;;
56517;SDS011;42419;48.760;2.322;2023-02-21T04:35:51;4.30;;;3.90;;
56517;SDS011;42419;48.760;2.322;2023-02-21T04:38:17;4.63;;;3.97;;
56517;SDS011;42419;48.760;2.322;2023-02-21T04:40:42;4.70;;;4.20;;
56517;SDS011;42419;48.760;2.322;2023-02-21T04:43:08;5.83;;;4.00;;
56517;SDS011;42419;48.760;2.322;2023-02-21T04:45:33;4.67;;;4.27;;
56517;SDS011;42419;48.760;2.322;2023-02-21T04:47:58;4.13;;;3.73;;
56517;SDS011;42419;48.760;2.322;2023-02-21T04:50:24;3.80;;;3.50;;
56517;SDS011;42419;48.760;2.322;2023-02-21T04:52:49;4.30;;;3.93;;
56517;SDS011;42419;48.760;2.322;2023-02-21T04:55:14;4.40;;;4.03;;
56517;SDS011;42419;48.760;2.322;2023-02-21T04:57:40;5.90;;;4.73;;
56517;SDS011;42419;48.760;2.322;2023-02-21T05:00:06;4.40;;;4.00;;
56517;SDS011;42419;48.760;2.322;2023-02-21T05:02:32;4.30;;;3.90;;
56517;SDS011;42419;48.760;2.322;2023-02-21T05:04:57;5.13;;;4.43;;
56517;SDS011;42419;48.760;2.322;2023-02-21T05:07:23;4.53;;;4.07;;
56517;SDS011;42419;48.760;2.322;2023-02-21T05:09:48;4.47;;;4.13;;
56517;SDS011;42419;48.760;2.322;2023-02-21T05:12:14;4.77;;;4.23;;
56517;SDS011;42419;48.760;2.322;2023-02-21T05:14:39;5.00;;;4.60;;
56517;SDS011;42419;48.760;2.322;2023-02-21T05:17:06;4.20;;;3.60;;
56517;SDS011;42419;48.760;2.322;2023-02-21T05:19:31;4.23;;;3.90;;
56517;SDS011;42419;48.760;2.322;2023-02-21T05:21:58;4.70;;;4.30;;
56517;SDS011;42419;48.760;2.322;2023-02-21T05:24:25;4.27;;;3.90;;
56517;SDS011;42419;48.760;2.322;2023-02-21T05:26:52;4.97;;;4.47;;
56517;SDS011;42419;48.760;2.322;2023-02-21T05:29:18;5.40;;;4.90;;
56517;SDS011;42419;48.760;2.322;2023-02-21T05:31:44;4.73;;;4.33;;
56517;SDS011;42419;48.760;2.322;2023-02-21T05:34:09;4.40;;;4.00;;
56517;SDS011;42419;48.760;2.322;2023-02-21T05:36:35;4.47;;;4.07;;
56517;SDS011;42419;48.760;2.322;2023-02-21T05:39:01;4.57;;;4.17;;
56517;SDS011;42419;48.760;2.322;2023-02-21T05:41:26;4.57;;;4.20;;
56517;SDS011;42419;48.760;2.322;2023-02-21T05:43:51;4.47;;;4.07;;
56517;SDS011;42419;48.760;2.322;2023-02-21T05:46:18;3.70;;;3.40;;
56517;SDS011;42419;48.760;2.322;2023-02-21T05:48:47;4.20;;;3.80;;
56517;SDS011;42419;48.760;2.322;2023-02-21T05:51:13;5.73;;;4.20;;
56517;SDS011;42419;48.760;2.322;2023-02-21T05:53:39;4.93;;;4.40;;
56517;SDS011;42419;48.760;2.322;2023-02-21T05:56:04;4.57;;;4.17;;
56517;SDS011;42419;48.760;2.322;2023-02-21T05:58:30;4.43;;;4.00;;
56517;SDS011;42419;48.760;2.322;2023-02-21T06:00:55;4.33;;;3.93;;
56517;SDS011;42419;48.760;2.322;2023-02-21T06:03:20;4.40;;;4.00;;
56517;SDS011;42419;48.760;2.322;2023-02-21T06:05:46;5.00;;;3.67;;
56517;SDS011;42419;48.760;2.322;2023-02-21T06:08:11;3.97;;;3.57;;
56517;SDS011;42419;48.760;2.322;2023-02-21T06:10:36;4.50;;;4.10;;
56517;SDS011;42419;48.760;2.322;2023-02-21T06:13:02;4.40;;;4.00;;
56517;SDS011;42419;48.760;2.322;2023-02-21T06:15:27;5.00;;;4.60;;
56517;SDS011;42419;48.760;2.322;2023-02-21T06:17:52;4.40;;;4.00;;
56517;SDS011;42419;48.760;2.322;2023-02-21T06:20:18;7.83;;;3.73;;
56517;SDS011;42419;48.760;2.322;2023-02-21T06:22:43;4.43;;;3.70;;
56517;SDS011;42419;48.760;2.322;2023-02-21T06:25:09;4.60;;;4.17;;
56517;SDS011;42419;48.760;2.322;2023-02-21T06:27:35;7.13;;;3.50;;
56517;SDS011;42419;48.760;2.322;2023-02-21T06:30:01;4.80;;;4.10;;
56517;SDS011;42419;48.760;2.322;2023-02-21T06:32:27;6.00;;;3.83;;
56517;SDS011;42419;48.760;2.322;2023-02-21T06:34:52;4.30;;;3.90;;
56517;SDS011;42419;48.760;2.322;2023-02-21T06:37:18;4.90;;;4.03;;
56517;SDS011;42419;48.760;2.322;2023-02-21T06:39:43;4.30;;;3.90;;
56517;SDS011;42419;48.760;2.322;2023-02-21T06:42:13;4.30;;;3.90;;
56517;SDS011;42419;48.760;2.322;2023-02-21T06:44:39;4.70;;;4.30;;
56517;SDS011;42419;48.760;2.322;2023-02-21T06:47:06;4.30;;;3.90;;
56517;SDS011;42419;48.760;2.322;2023-02-21T06:49:32;4.87;;;4.37;;
56517;SDS011;42419;48.760;2.322;2023-02-21T06:51:57;4.83;;;4.33;;
56517;SDS011;42419;48.760;2.322;2023-02-21T06:54:22;6.33;;;4.00;;
56517;SDS011;42419;48.760;2.322;2023-02-21T06:56:49;4.87;;;4.37;;
56517;SDS011;42419;48.760;2.322;2023-02-21T06:59:14;4.90;;;4.40;;
56517;SDS011;42419;48.760;2.322;2023-02-21T07:01:39;4.80;;;4.37;;
56517;SDS011;42419;48.760;2.322;2023-02-21T07:04:05;5.50;;;4.60;;
56517;SDS011;42419;48.760;2.322;2023-02-21T07:06:30;4.67;;;4.20;;
56517;SDS011;42419;48.760;2.322;2023-02-21T07:08:57;5.07;;;4.13;;
56517;SDS011;42419;48.760;2.322;2023-02-21T07:11:22;4.70;;;4.10;;
56517;SDS011;42419;48.760;2.322;2023-02-21T07:13:49;4.20;;;3.80;;
56517;SDS011;42419;48.760;2.322;2023-02-21T07:16:15;4.33;;;3.93;;
56517;SDS011;42419;48.760;2.322;2023-02-21T07:18:44;3.87;;;3.57;;
56517;SDS011;42419;48.760;2.322;2023-02-21T07:21:10;4.33;;;3.93;;
56517;SDS011;42419;48.760;2.322;2023-02-21T07:23:36;5.40;;;4.30;;
56517;SDS011;42419;48.760;2.322;2023-02-21T07:26:01;4.40;;;4.00;;
56517;SDS011;42419;48.760;2.322;2023-02-21T07:28:27;4.97;;;4.00;;
56517;SDS011;42419;48.760;2.322;2023-02-21T07:30:53;4.50;;;4.10;;
56517;SDS011;42419;48.760;2.322;2023-02-21T07:33:18;4.77;;;4.27;;
56517;SDS011;42419;48.760;2.322;2023-02-21T07:35:44;4.93;;;4.43;;
56517;SDS011;42419;48.760;2.322;2023-02-21T07:40:47;4.97;;;3.83;;
56517;SDS011;42419;48.760;2.322;2023-02-21T07:43:13;5.53;;;4.87;;
56517;SDS011;42419;48.760;2.322;2023-02-21T07:45:38;5.30;;;4.80;;
56517;SDS011;42419;48.760;2.322;2023-02-21T07:48:03;5.10;;;4.37;;
56517;SDS011;42419;48.760;2.322;2023-02-21T07:50:29;6.90;;;4.33;;
56517;SDS011;42419;48.760;2.322;2023-02-21T07:52:54;4.67;;;4.13;;
56517;SDS011;42419;48.760;2.322;2023-02-21T07:55:20;4.90;;;4.13;;
56517;SDS011;42419;48.760;2.322;2023-02-21T07:57:46;6.93;;;5.00;;
56517;SDS011;42419;48.760;2.322;2023-02-21T08:00:11;4.60;;;4.03;;
56517;SDS011;42419;48.760;2.322;2023-02-21T08:02:37;7.80;;;4.80;;
56517;SDS011;42419;48.760;2.322;2023-02-21T08:05:04;8.60;;;4.53;;
56517;SDS011;42419;48.760;2.322;2023-02-21T08:07:30;7.23;;;4.80;;
56517;SDS011;42419;48.760;2.322;2023-02-21T08:09:55;5.20;;;4.70;;
56517;SDS011;42419;48.760;2.322;2023-02-21T08:12:21;5.30;;;4.40;;
56517;SDS011;42419;48.760;2.322;2023-02-21T08:14:46;5.10;;;4.60;;
56517;SDS011;42419;48.760;2.322;2023-02-21T08:17:11;4.87;;;4.47;;
56517;SDS011;42419;48.760;2.322;2023-02-21T08:19:38;4.37;;;4.07;;
56517;SDS011;42419;48.760;2.322;2023-02-21T08:22:03;4.50;;;4.10;;
56517;SDS011;42419;48.760;2.322;2023-02-21T08:24:29;5.20;;;4.30;;
56517;SDS011;42419;48.760;2.322;2023-02-21T08:26:54;4.70;;;4.30;;
56517;SDS011;42419;48.760;2.322;2023-02-21T08:29:19;5.60;;;4.73;;
56517;SDS011;42419;48.760;2.322;2023-02-21T08:31:45;5.50;;;5.00;;
56517;SDS011;42419;48.760;2.322;2023-02-21T08:34:10;5.93;;;5.23;;
56517;SDS011;42419;48.760;2.322;2023-02-21T08:36:37;5.10;;;4.70;;
56517;SDS011;42419;48.760;2.322;2023-02-21T08:39:05;5.37;;;4.87;;
56517;SDS011;42419;48.760;2.322;2023-02-21T08:41:38;5.87;;;4.87;;
56517;SDS011;42419;48.760;2.322;2023-02-21T08:44:05;6.40;;;5.20;;
56517;SDS011;42419;48.760;2.322;2023-02-21T08:46:31;4.83;;;4.13;;
56517;SDS011;42419;48.760;2.322;2023-02-21T08:48:57;5.80;;;5.30;;
56517;SDS011;42419;48.760;2.322;2023-02-21T08:51:26;6.33;;;5.73;;
56517;SDS011;42419;48.760;2.322;2023-02-21T08:53:55;5.63;;;4.67;;
56517;SDS011;42419;48.760;2.322;2023-02-21T08:56:21;6.10;;;5.60;;
56517;SDS011;42419;48.760;2.322;2023-02-21T08:58:47;5.37;;;4.87;;
56517;SDS011;42419;48.760;2.322;2023-02-21T09:01:13;5.50;;;5.00;;
56517;SDS011;42419;48.760;2.322;2023-02-21T09:03:38;7.03;;;5.00;;
56517;SDS011;42419;48.760;2.322;2023-02-21T09:06:04;6.43;;;5.47;;
56517;SDS011;42419;48.760;2.322;2023-02-21T09:08:29;6.53;;;5.07;;
56517;SDS011;42419;48.760;2.322;2023-02-21T09:10:55;7.90;;;5.60;;
56517;SDS011;42419;48.760;2.322;2023-02-21T09:13:24;5.60;;;5.10;;
56517;SDS011;42419;48.760;2.322;2023-02-21T09:15:51;6.53;;;5.37;;
56517;SDS011;42419;48.760;2.322;2023-02-21T09:18:16;6.20;;;5.63;;
56517;SDS011;42419;48.760;2.322;2023-02-21T09:20:42;7.43;;;5.00;;
56517;SDS011;42419;48.760;2.322;2023-02-21T09:23:07;6.13;;;5.63;;
56517;SDS011;42419;48.760;2.322;2023-02-21T09:25:33;4.93;;;4.53;;
56517;SDS011;42419;48.760;2.322;2023-02-21T09:27:59;7.30;;;5.60;;
56517;SDS011;42419;48.760;2.322;2023-02-21T09:30:26;5.93;;;5.33;;
56517;SDS011;42419;48.760;2.322;2023-02-21T09:32:53;5.60;;;5.10;;
56517;SDS011;42419;48.760;2.322;2023-02-21T09:35:20;5.43;;;4.93;;
56517;SDS011;42419;48.760;2.322;2023-02-21T09:37:46;5.87;;;5.27;;
56517;SDS011;42419;48.760;2.322;2023-02-21T09:40:17;5.60;;;5.10;;
56517;SDS011;42419;48.760;2.322;2023-02-21T09:42:58;4.90;;;4.50;;
56517;SDS011;42419;48.760;2.322;2023-02-21T09:45:26;6.27;;;5.67;;
56517;SDS011;42419;48.760;2.322;2023-02-21T09:48:00;5.40;;;4.67;;
56517;SDS011;42419;48.760;2.322;2023-02-21T09:50:31;6.70;;;5.03;;
56517;SDS011;42419;48.760;2.322;2023-02-21T09:53:02;5.20;;;4.73;;
56517;SDS011;42419;48.760;2.322;2023-02-21T09:55:33;5.87;;;5.27;;
56517;SDS011;42419;48.760;2.322;2023-02-21T09:58:00;6.37;;;5.30;;
56517;SDS011;42419;48.760;2.322;2023-02-21T10:00:28;5.00;;;4.40;;
56517;SDS011;42419;48.760;2.322;2023-02-21T10:13:54;5.40;;;4.97;;
56517;SDS011;42419;48.760;2.322;2023-02-21T10:16:38;5.40;;;4.90;;
56517;SDS011;42419;48.760;2.322;2023-02-21T10:22:17;7.40;;;4.90;;
56517;SDS011;42419;48.760;2.322;2023-02-21T10:24:45;5.90;;;5.20;;
56517;SDS011;42419;48.760;2.322;2023-02-21T10:27:19;5.67;;;5.13;;
56517;SDS011;42419;48.760;2.322;2023-02-21T10:32:35;6.27;;;5.60;;
56517;SDS011;42419;48.760;2.322;2023-02-21T10:35:01;5.40;;;4.90;;
56517;SDS011;42419;48.760;2.322;2023-02-21T10:45:40;5.27;;;4.77;;
56517;SDS011;42419;48.760;2.322;2023-02-21T10:48:12;5.43;;;4.93;;
56517;SDS011;42419;48.760;2.322;2023-02-21T10:51:03;4.73;;;4.27;;
56517;SDS011;42419;48.760;2.322;2023-02-21T10:58:31;5.33;;;4.83;;
56517;SDS011;42419;48.760;2.322;2023-02-21T11:00:57;6.30;;;4.47;;
56517;SDS011;42419;48.760;2.322;2023-02-21T11:03:36;5.30;;;4.47;;
56517;SDS011;42419;48.760;2.322;2023-02-21T11:06:09;4.20;;;3.80;;
56517;SDS011;42419;48.760;2.322;2023-02-21T11:08:45;4.73;;;4.20;;
56517;SDS011;42419;48.760;2.322;2023-02-21T11:11:11;3.90;;;3.60;;
56517;SDS011;42419;48.760;2.322;2023-02-21T11:13:36;4.27;;;3.80;;
56517;SDS011;42419;48.760;2.322;2023-02-21T11:18:35;4.87;;;4.17;;
56517;SDS011;42419;48.760;2.322;2023-02-21T11:23:35;4.30;;;3.90;;
56517;SDS011;42419;48.760;2.322;2023-02-21T11:26:08;4.80;;;4.40;;
56517;SDS011;42419;48.760;2.322;2023-02-21T11:28:36;5.30;;;4.00;;
56517;SDS011;42419;48.760;2.322;2023-02-21T11:34:00;4.27;;;3.87;;
56517;SDS011;42419;48.760;2.322;2023-02-21T11:36:29;4.43;;;4.00;;
56517;SDS011;42419;48.760;2.322;2023-02-21T11:39:04;4.83;;;4.43;;
56517;SDS011;42419;48.760;2.322;2023-02-21T11:41:58;4.10;;;3.70;;
56517;SDS011;42419;48.760;2.322;2023-02-21T11:44:34;4.70;;;4.20;;
56517;SDS011;42419;48.760;2.322;2023-02-21T11:47:21;4.10;;;3.80;;
56517;SDS011;42419;48.760;2.322;2023-02-21T11:52:37;4.80;;;4.23;;
56517;SDS011;42419;48.760;2.322;2023-02-21T11:55:19;4.20;;;3.80;;
56517;SDS011;42419;48.760;2.322;2023-02-21T12:03:03;4.20;;;3.80;;
56517;SDS011;42419;48.760;2.322;2023-02-21T12:16:57;3.83;;;3.43;;
56517;SDS011;42419;48.760;2.322;2023-02-21T12:19:53;4.23;;;3.83;;
56517;SDS011;42419;48.760;2.322;2023-02-21T12:25:26;4.37;;;3.97;;
56517;SDS011;42419;48.760;2.322;2023-02-21T12:27:59;4.20;;;3.23;;
56517;SDS011;42419;48.760;2.322;2023-02-21T12:36:29;4.90;;;3.40;;
56517;SDS011;42419;48.760;2.322;2023-02-21T12:42:23;3.45;;;3.15;;
56517;SDS011;42419;48.760;2.322;2023-02-21T12:47:32;4.50;;;4.10;;
56517;SDS011;42419;48.760;2.322;2023-02-21T12:50:23;3.57;;;3.27;;
56517;SDS011;42419;48.760;2.322;2023-02-21T12:52:58;4.30;;;3.90;;
56517;SDS011;42419;48.760;2.322;2023-02-21T12:55:34;4.33;;;3.50;;
56517;SDS011;42419;48.760;2.322;2023-02-21T13:00:42;4.33;;;3.70;;
56517;SDS011;42419;48.760;2.322;2023-02-21T13:03:22;4.20;;;3.80;;
56517;SDS011;42419;48.760;2.322;2023-02-21T13:08:54;4.00;;;3.50;;
56517;SDS011;42419;48.760;2.322;2023-02-21T13:11:28;4.53;;;4.00;;
56517;SDS011;42419;48.760;2.322;2023-02-21T13:13:55;4.60;;;3.40;;
56517;SDS011;42419;48.760;2.322;2023-02-21T13:16:22;4.20;;;3.80;;
56517;SDS011;42419;48.760;2.322;2023-02-21T13:18:53;4.00;;;3.60;;
56517;SDS011;42419;48.760;2.322;2023-02-21T13:32:49;4.23;;;3.53;;
56517;SDS011;42419;48.760;2.322;2023-02-21T13:35:23;4.30;;;3.90;;
56517;SDS011;42419;48.760;2.322;2023-02-21T13:38:01;5.70;;;3.70;;
56517;SDS011;42419;48.760;2.322;2023-02-21T13:40:51;6.43;;;4.20;;
56517;SDS011;42419;48.760;2.322;2023-02-21T13:43:26;4.03;;;3.23;;
56517;SDS011;42419;48.760;2.322;2023-02-21T13:45:54;4.40;;;3.80;;
56517;SDS011;42419;48.760;2.322;2023-02-21T13:48:39;5.43;;;3.50;;
56517;SDS011;42419;48.760;2.322;2023-02-21T13:51:05;3.70;;;3.30;;
56517;SDS011;42419;48.760;2.322;2023-02-21T13:53:31;4.10;;;3.70;;
56517;SDS011;42419;48.760;2.322;2023-02-21T13:56:17;3.40;;;3.10;;
56517;SDS011;42419;48.760;2.322;2023-02-21T13:58:47;3.73;;;3.43;;
56517;SDS011;42419;48.760;2.322;2023-02-21T14:03:46;4.10;;;3.70;;
56517;SDS011;42419;48.760;2.322;2023-02-21T14:06:21;3.83;;;3.47;;
56517;SDS011;42419;48.760;2.322;2023-02-21T14:08:48;3.80;;;3.27;;
56517;SDS011;42419;48.760;2.322;2023-02-21T14:11:21;4.23;;;3.80;;
56517;SDS011;42419;48.760;2.322;2023-02-21T14:13:55;4.93;;;3.70;;
56517;SDS011;42419;48.760;2.322;2023-02-21T14:19:30;3.50;;;3.20;;
56517;SDS011;42419;48.760;2.322;2023-02-21T14:22:15;3.40;;;3.10;;
56517;SDS011;42419;48.760;2.322;2023-02-21T14:24:42;7.40;;;3.50;;
56517;SDS011;42419;48.760;2.322;2023-02-21T14:35:58;6.10;;;3.27;;
56517;SDS011;42419;48.760;2.322;2023-02-21T14:38:31;4.80;;;3.80;;
56517;SDS011;42419;48.760;2.322;2023-02-21T14:41:09;4.10;;;3.30;;
56517;SDS011;42419;48.760;2.322;2023-02-21T14:43:57;3.87;;;3.47;;
56517;SDS011;42419;48.760;2.322;2023-02-21T14:52:41;6.23;;;3.50;;
56517;SDS011;42419;48.760;2.322;2023-02-21T14:58:15;4.03;;;3.67;;
56517;SDS011;42419;48.760;2.322;2023-02-21T15:01:20;4.70;;;3.77;;
56517;SDS011;42419;48.760;2.322;2023-02-21T15:04:01;3.80;;;3.07;;
56517;SDS011;42419;48.760;2.322;2023-02-21T15:06:33;5.53;;;3.40;;
56517;SDS011;42419;48.760;2.322;2023-02-21T15:09:10;3.63;;;3.33;;
56517;SDS011;42419;48.760;2.322;2023-02-21T15:11:37;3.90;;;3.50;;
56517;SDS011;42419;48.760;2.322;2023-02-21T15:14:11;3.80;;;3.37;;
56517;SDS011;42419;48.760;2.322;2023-02-21T15:16:49;3.57;;;3.27;;
56517;SDS011;42419;48.760;2.322;2023-02-21T15:19:27;3.80;;;3.50;;
56517;SDS011;42419;48.760;2.322;2023-02-21T15:24:41;3.80;;;3.50;;
56517;SDS011;42419;48.760;2.322;2023-02-21T15:27:20;4.97;;;3.60;;
56517;SDS011;42419;48.760;2.322;2023-02-21T15:30:00;4.00;;;3.53;;
56517;SDS011;42419;48.760;2.322;2023-02-21T15:32:38;3.57;;;3.13;;
56517;SDS011;42419;48.760;2.322;2023-02-21T15:35:09;3.90;;;3.30;;
56517;SDS011;42419;48.760;2.322;2023-02-21T15:37:42;4.10;;;2.77;;
56517;SDS011;42419;48.760;2.322;2023-02-21T15:40:14;4.33;;;3.33;;
56517;SDS011;42419;48.760;2.322;2023-02-21T15:42:43;4.00;;;3.00;;
56517;SDS011;42419;48.760;2.322;2023-02-21T15:45:18;4.43;;;3.20;;
56517;SDS011;42419;48.760;2.322;2023-02-21T15:47:48;4.10;;;3.70;;
56517;SDS011;42419;48.760;2.322;2023-02-21T15:50:22;4.20;;;3.20;;
56517;SDS011;42419;48.760;2.322;2023-02-21T15:52:55;5.27;;;3.27;;
56517;SDS011;42419;48.760;2.322;2023-02-21T16:00:26;4.23;;;3.83;;
56517;SDS011;42419;48.760;2.322;2023-02-21T16:08:37;5.00;;;3.40;;
56517;SDS011;42419;48.760;2.322;2023-02-21T16:11:14;4.03;;;3.40;;
56517;SDS011;42419;48.760;2.322;2023-02-21T16:13:39;4.87;;;3.80;;
56517;SDS011;42419;48.760;2.322;2023-02-21T16:16:05;4.07;;;3.43;;
56517;SDS011;42419;48.760;2.322;2023-02-21T16:18:32;4.07;;;3.40;;
56517;SDS011;42419;48.760;2.322;2023-02-21T16:20:59;4.03;;;3.53;;
56517;SDS011;42419;48.760;2.322;2023-02-21T16:28:24;5.00;;;3.77;;
56517;SDS011;42419;48.760;2.322;2023-02-21T16:30:50;4.70;;;3.70;;
56517;SDS011;42419;48.760;2.322;2023-02-21T16:33:16;4.43;;;3.43;;
56517;SDS011;42419;48.760;2.322;2023-02-21T16:35:41;4.03;;;3.73;;
56517;SDS011;42419;48.760;2.322;2023-02-21T16:38:14;4.00;;;3.60;;
56517;SDS011;42419;48.760;2.322;2023-02-21T16:40:41;4.20;;;3.80;;
56517;SDS011;42419;48.760;2.322;2023-02-21T16:43:07;4.00;;;3.60;;
56517;SDS011;42419;48.760;2.322;2023-02-21T16:45:41;5.43;;;3.70;;
56517;SDS011;42419;48.760;2.322;2023-02-21T16:48:09;3.83;;;3.53;;
56517;SDS011;42419;48.760;2.322;2023-02-21T16:50:40;5.00;;;3.47;;
56517;SDS011;42419;48.760;2.322;2023-02-21T16:53:06;4.57;;;3.10;;
56517;SDS011;42419;48.760;2.322;2023-02-21T16:55:36;5.87;;;4.03;;
56517;SDS011;42419;48.760;2.322;2023-02-21T16:58:04;5.60;;;4.03;;
56517;SDS011;42419;48.760;2.322;2023-02-21T17:00:32;4.40;;;3.77;;
56517;SDS011;42419;48.760;2.322;2023-02-21T17:02:58;3.90;;;3.50;;
56517;SDS011;42419;48.760;2.322;2023-02-21T17:05:23;5.30;;;3.57;;
56517;SDS011;42419;48.760;2.322;2023-02-21T17:07:50;4.03;;;3.33;;
56517;SDS011;42419;48.760;2.322;2023-02-21T17:10:17;4.53;;;3.50;;
56517;SDS011;42419;48.760;2.322;2023-02-21T17:12:44;4.63;;;3.80;;
56517;SDS011;42419;48.760;2.322;2023-02-21T17:15:09;4.13;;;3.73;;
56517;SDS011;42419;48.760;2.322;2023-02-21T17:17:35;5.40;;;3.63;;
56517;SDS011;42419;48.760;2.322;2023-02-21T17:20:01;4.43;;;3.97;;
56517;SDS011;42419;48.760;2.322;2023-02-21T17:22:27;5.27;;;4.33;;
56517;SDS011;42419;48.760;2.322;2023-02-21T17:24:52;3.60;;;3.30;;
56517;SDS011;42419;48.760;2.322;2023-02-21T17:27:19;3.33;;;3.03;;
56517;SDS011;42419;48.760;2.322;2023-02-21T17:29:45;3.67;;;3.37;;
56517;SDS011;42419;48.760;2.322;2023-02-21T17:32:11;4.63;;;4.23;;
56517;SDS011;42419;48.760;2.322;2023-02-21T17:34:36;4.00;;;3.60;;
56517;SDS011;42419;48.760;2.322;2023-02-21T17:37:02;4.67;;;3.60;;
56517;SDS011;42419;48.760;2.322;2023-02-21T17:39:28;4.70;;;3.80;;
56517;SDS011;42419;48.760;2.322;2023-02-21T17:41:54;4.90;;;3.63;;
56517;SDS011;42419;48.760;2.322;2023-02-21T17:44:20;4.30;;;3.70;;
56517;SDS011;42419;48.760;2.322;2023-02-21T17:46:52;4.13;;;3.27;;
56517;SDS011;42419;48.760;2.322;2023-02-21T17:49:20;3.63;;;3.27;;
56517;SDS011;42419;48.760;2.322;2023-02-21T17:51:47;4.70;;;3.30;;
56517;SDS011;42419;48.760;2.322;2023-02-21T17:54:13;4.23;;;3.10;;
56517;SDS011;42419;48.760;2.322;2023-02-21T17:56:43;5.20;;;3.60;;
56517;SDS011;42419;48.760;2.322;2023-02-21T17:59:08;3.87;;;3.30;;
56517;SDS011;42419;48.760;2.322;2023-02-21T18:01:34;4.27;;;3.13;;